sensor_id;sensor_type;location;lat;lon;timestamp;pressure;altitude;pressure_sealevel;temperature;humidity
17635;BME280;8936;49.010;12.120;2023-02-18T00:00:11;98623.31;;;9.61;100.00
17635;BME280;8936;49.010;12.120;2023-02-18T00:02:38;98613.75;;;9.48;100.00
17635;BME280;8936;49.010;12.120;2023-02-18T00:05:05;98621.53;;;9.66;100.00
17635;BME280;8936;49.010;12.120;2023-02-18T00:07:32;98622.13;;;9.68;100.00
17635;BME280;8936;49.010;12.120;2023-02-18T00:09:59;98617.16;;;9.32;100.00
17635;BME280;8936;49.010;12.120;2023-02-18T00:12:26;98618.97;;;9.71;100.00
17635;BME280;8936;49.010;12.120;2023-02-18T00:14:54;98613.13;;;9.58;100.00
17635;BME280;8936;49.010;12.120;2023-02-18T00:17:20;98615.16;;;9.67;100.00
17635;BME280;8936;49.010;12.120;2023-02-18T00:19:46;98610.78;;;9.61;100.00
17635;BME280;8936;49.010;12.120;2023-02-18T00:22:12;98617.69;;;9.74;100.00
17635;BME280;8936;49.010;12.120;2023-02-18T00:24:39;98620.69;;;9.77;100.00
17635;BME280;8936;49.010;12.120;2023-02-18T00:27:05;98621.88;;;9.70;100.00
17635;BME280;8936;49.010;12.120;2023-02-18T00:29:33;98615.03;;;9.62;100.00
17635;BME280;8936;49.010;12.120;2023-02-18T00:31:59;98617.28;;;9.65;100.00
17635;BME280;8936;49.010;12.120;2023-02-18T00:34:25;98609.78;;;9.51;100.00
17635;BME280;8936;49.010;12.120;2023-02-18T00:36:52;98609.00;;;9.67;100.00
17635;BME280;8936;49.010;12.120;2023-02-18T00:39:18;98611.47;;;9.68;100.00
17635;BME280;8936;49.010;12.120;2023-02-18T00:41:44;98618.19;;;9.59;100.00
17635;BME280;8936;49.010;12.120;2023-02-18T00:44:11;98614.50;;;9.60;100.00
17635;BME280;8936;49.010;12.120;2023-02-18T00:46:39;98605.19;;;9.46;100.00
17635;BME280;8936;49.010;12.120;2023-02-18T00:49:05;98612.63;;;9.61;100.00
17635;BME280;8936;49.010;12.120;2023-02-18T00:51:32;98621.25;;;9.80;100.00
17635;BME280;8936;49.010;12.120;2023-02-18T00:53:59;98622.00;;;9.63;100.00
17635;BME280;8936;49.010;12.120;2023-02-18T00:56:26;98613.63;;;9.71;100.00
17635;BME280;8936;49.010;12.120;2023-02-18T00:58:52;98609.97;;;9.61;100.00
17635;BME280;8936;49.010;12.120;2023-02-18T01:01:19;98618.31;;;9.64;100.00
17635;BME280;8936;49.010;12.120;2023-02-18T01:03:47;98626.16;;;9.88;100.00
17635;BME280;8936;49.010;12.120;2023-02-18T01:06:13;98623.03;;;9.91;100.00
17635;BME280;8936;49.010;12.120;2023-02-18T01:08:40;98614.81;;;9.64;100.00
17635;BME280;8936;49.010;12.120;2023-02-18T01:11:07;98618.88;;;9.66;100.00
17635;BME280;8936;49.010;12.120;2023-02-18T01:13:33;98622.13;;;9.68;100.00
17635;BME280;8936;49.010;12.120;2023-02-18T01:16:00;98620.81;;;9.71;100.00
17635;BME280;8936;49.010;12.120;2023-02-18T01:18:26;98613.59;;;9.55;100.00
17635;BME280;8936;49.010;12.120;2023-02-18T01:20:54;98620.31;;;9.57;100.00
17635;BME280;8936;49.010;12.120;2023-02-18T01:23:21;98617.91;;;9.72;100.00
17635;BME280;8936;49.010;12.120;2023-02-18T01:25:48;98616.97;;;9.50;100.00
17635;BME280;8936;49.010;12.120;2023-02-18T01:28:14;98608.81;;;9.57;100.00
17635;BME280;8936;49.010;12.120;2023-02-18T01:30:41;98618.78;;;9.61;100.00
17635;BME280;8936;49.010;12.120;2023-02-18T01:33:07;98614.59;;;9.65;100.00
17635;BME280;8936;49.010;12.120;2023-02-18T01:35:36;98606.13;;;9.68;100.00
17635;BME280;8936;49.010;12.120;2023-02-18T01:38:04;98610.63;;;9.68;100.00
17635;BME280;8936;49.010;12.120;2023-02-18T01:40:30;98615.00;;;9.91;100.00
17635;BME280;8936;49.010;12.120;2023-02-18T01:42:57;98602.88;;;9.66;100.00
17635;BME280;8936;49.010;12.120;2023-02-18T01:45:41;98601.59;;;9.86;100.00
17635;BME280;8936;49.010;12.120;2023-02-18T01:48:11;98608.19;;;9.66;100.00
17635;BME280;8936;49.010;12.120;2023-02-18T01:50:39;98601.88;;;9.56;100.00
17635;BME280;8936;49.010;12.120;2023-02-18T01:53:08;98606.53;;;9.77;100.00
17635;BME280;8936;49.010;12.120;2023-02-18T01:55:35;98596.75;;;9.83;100.00
17635;BME280;8936;49.010;12.120;2023-02-18T01:58:03;98602.66;;;9.85;100.00
17635;BME280;8936;49.010;12.120;2023-02-18T02:00:29;98596.38;;;9.62;100.00
17635;BME280;8936;49.010;12.120;2023-02-18T02:02:56;98594.53;;;9.63;100.00
17635;BME280;8936;49.010;12.120;2023-02-18T02:05:23;98597.94;;;9.58;100.00
17635;BME280;8936;49.010;12.120;2023-02-18T02:07:49;98595.97;;;9.54;100.00
17635;BME280;8936;49.010;12.120;2023-02-18T02:10:18;98592.94;;;9.78;100.00
17635;BME280;8936;49.010;12.120;2023-02-18T02:12:48;98589.66;;;9.60;100.00
17635;BME280;8936;49.010;12.120;2023-02-18T02:15:23;98592.78;;;9.68;100.00
17635;BME280;8936;49.010;12.120;2023-02-18T02:17:54;98587.41;;;9.52;100.00
17635;BME280;8936;49.010;12.120;2023-02-18T02:20:49;98586.44;;;9.58;100.00
17635;BME280;8936;49.010;12.120;2023-02-18T02:23:26;98583.44;;;9.54;100.00
17635;BME280;8936;49.010;12.120;2023-02-18T02:28:47;98581.03;;;9.53;100.00
17635;BME280;8936;49.010;12.120;2023-02-18T02:31:35;98578.25;;;9.48;100.00
17635;BME280;8936;49.010;12.120;2023-02-18T02:34:16;98581.25;;;9.51;100.00
17635;BME280;8936;49.010;12.120;2023-02-18T02:36:46;98586.69;;;9.56;100.00
17635;BME280;8936;49.010;12.120;2023-02-18T02:39:18;98591.72;;;9.69;100.00
17635;BME280;8936;49.010;12.120;2023-02-18T02:41:48;98587.28;;;9.75;100.00
17635;BME280;8936;49.010;12.120;2023-02-18T02:44:19;98586.03;;;9.49;100.00
17635;BME280;8936;49.010;12.120;2023-02-18T02:46:46;98571.97;;;9.54;100.00
17635;BME280;8936;49.010;12.120;2023-02-18T02:49:19;98577.44;;;9.47;100.00
17635;BME280;8936;49.010;12.120;2023-02-18T02:51:49;98575.38;;;9.66;100.00
17635;BME280;8936;49.010;12.120;2023-02-18T02:54:18;98561.06;;;9.55;100.00
17635;BME280;8936;49.010;12.120;2023-02-18T02:56:45;98554.94;;;9.55;100.00
17635;BME280;8936;49.010;12.120;2023-02-18T02:59:14;98558.97;;;9.57;100.00
17635;BME280;8936;49.010;12.120;2023-02-18T03:01:46;98558.19;;;9.73;100.00
17635;BME280;8936;49.010;12.120;2023-02-18T03:07:07;98550.97;;;9.41;100.00
17635;BME280;8936;49.010;12.120;2023-02-18T03:09:39;98560.00;;;9.40;100.00
17635;BME280;8936;49.010;12.120;2023-02-18T03:12:11;98562.41;;;9.41;100.00
17635;BME280;8936;49.010;12.120;2023-02-18T03:14:43;98565.81;;;9.53;100.00
17635;BME280;8936;49.010;12.120;2023-02-18T03:17:12;98568.19;;;9.66;100.00
17635;BME280;8936;49.010;12.120;2023-02-18T03:19:41;98561.25;;;9.65;100.00
17635;BME280;8936;49.010;12.120;2023-02-18T03:22:12;98553.94;;;9.44;100.00
17635;BME280;8936;49.010;12.120;2023-02-18T03:24:43;98546.56;;;9.35;100.00
17635;BME280;8936;49.010;12.120;2023-02-18T03:27:11;98543.72;;;9.53;100.00
17635;BME280;8936;49.010;12.120;2023-02-18T03:29:39;98551.53;;;9.59;100.00
17635;BME280;8936;49.010;12.120;2023-02-18T03:32:07;98550.19;;;9.73;100.00
17635;BME280;8936;49.010;12.120;2023-02-18T03:34:36;98548.81;;;9.88;100.00
17635;BME280;8936;49.010;12.120;2023-02-18T03:37:04;98541.13;;;9.74;100.00
17635;BME280;8936;49.010;12.120;2023-02-18T03:39:33;98549.53;;;9.50;100.00
17635;BME280;8936;49.010;12.120;2023-02-18T03:42:00;98544.78;;;9.68;100.00
17635;BME280;8936;49.010;12.120;2023-02-18T03:44:26;98538.06;;;9.83;100.00
17635;BME280;8936;49.010;12.120;2023-02-18T03:46:52;98550.91;;;9.86;100.00
17635;BME280;8936;49.010;12.120;2023-02-18T03:49:19;98546.38;;;9.69;100.00
17635;BME280;8936;49.010;12.120;2023-02-18T03:51:45;98547.44;;;9.85;100.00
17635;BME280;8936;49.010;12.120;2023-02-18T03:54:12;98546.28;;;9.64;100.00
17635;BME280;8936;49.010;12.120;2023-02-18T03:56:40;98540.44;;;9.51;100.00
17635;BME280;8936;49.010;12.120;2023-02-18T03:59:07;98554.69;;;9.56;100.00
17635;BME280;8936;49.010;12.120;2023-02-18T04:01:34;98550.63;;;9.54;100.00
17635;BME280;8936;49.010;12.120;2023-02-18T04:04:00;98541.94;;;9.75;100.00
17635;BME280;8936;49.010;12.120;2023-02-18T04:06:27;98556.81;;;9.71;100.00
17635;BME280;8936;49.010;12.120;2023-02-18T04:08:53;98552.09;;;9.78;100.00
17635;BME280;8936;49.010;12.120;2023-02-18T04:11:20;98555.91;;;9.82;100.00
17635;BME280;8936;49.010;12.120;2023-02-18T04:13:47;98550.13;;;9.68;100.00
17635;BME280;8936;49.010;12.120;2023-02-18T04:16:14;98559.72;;;9.69;100.00
17635;BME280;8936;49.010;12.120;2023-02-18T04:18:40;98560.38;;;9.76;100.00
17635;BME280;8936;49.010;12.120;2023-02-18T04:21:06;98563.44;;;9.68;100.00
17635;BME280;8936;49.010;12.120;2023-02-18T04:23:33;98569.41;;;9.75;100.00
17635;BME280;8936;49.010;12.120;2023-02-18T04:25:59;98577.09;;;9.89;100.00
17635;BME280;8936;49.010;12.120;2023-02-18T04:28:26;98564.81;;;9.71;100.00
17635;BME280;8936;49.010;12.120;2023-02-18T04:30:53;98560.19;;;10.00;100.00
17635;BME280;8936;49.010;12.120;2023-02-18T04:33:20;98558.13;;;10.02;100.00
17635;BME280;8936;49.010;12.120;2023-02-18T04:35:46;98551.56;;;9.93;100.00
17635;BME280;8936;49.010;12.120;2023-02-18T04:38:12;98551.47;;;9.88;100.00
17635;BME280;8936;49.010;12.120;2023-02-18T04:40:39;98555.78;;;10.05;100.00
17635;BME280;8936;49.010;12.120;2023-02-18T04:43:05;98558.94;;;10.02;100.00
17635;BME280;8936;49.010;12.120;2023-02-18T04:45:31;98557.53;;;10.00;100.00
17635;BME280;8936;49.010;12.120;2023-02-18T04:47:59;98560.28;;;9.88;100.00
17635;BME280;8936;49.010;12.120;2023-02-18T04:50:25;98560.19;;;9.66;100.00
17635;BME280;8936;49.010;12.120;2023-02-18T04:52:52;98551.09;;;9.96;100.00
17635;BME280;8936;49.010;12.120;2023-02-18T04:55:18;98548.31;;;9.91;100.00
17635;BME280;8936;49.010;12.120;2023-02-18T04:57:44;98551.47;;;9.88;100.00
17635;BME280;8936;49.010;12.120;2023-02-18T05:00:12;98553.41;;;9.75;100.00
17635;BME280;8936;49.010;12.120;2023-02-18T05:02:39;98547.44;;;9.68;100.00
17635;BME280;8936;49.010;12.120;2023-02-18T05:05:07;98551.63;;;9.64;100.00
17635;BME280;8936;49.010;12.120;2023-02-18T05:07:33;98559.00;;;9.74;100.00
17635;BME280;8936;49.010;12.120;2023-02-18T05:10:00;98552.59;;;9.58;100.00
17635;BME280;8936;49.010;12.120;2023-02-18T05:12:26;98555.81;;;9.60;100.00
17635;BME280;8936;49.010;12.120;2023-02-18T05:14:52;98549.75;;;9.48;100.00
17635;BME280;8936;49.010;12.120;2023-02-18T05:17:19;98561.25;;;9.65;100.00
17635;BME280;8936;49.010;12.120;2023-02-18T05:19:45;98547.25;;;9.58;100.00
17635;BME280;8936;49.010;12.120;2023-02-18T05:22:13;98565.03;;;9.69;100.00
17635;BME280;8936;49.010;12.120;2023-02-18T05:24:39;98559.16;;;9.67;100.00
17635;BME280;8936;49.010;12.120;2023-02-18T05:27:06;98561.31;;;9.54;100.00
17635;BME280;8936;49.010;12.120;2023-02-18T05:29:32;98560.59;;;9.58;100.00
17635;BME280;8936;49.010;12.120;2023-02-18T05:31:58;98558.75;;;9.59;100.00
17635;BME280;8936;49.010;12.120;2023-02-18T05:34:25;98557.69;;;9.60;100.00
17635;BME280;8936;49.010;12.120;2023-02-18T05:36:51;98552.97;;;9.50;100.00
17635;BME280;8936;49.010;12.120;2023-02-18T05:39:19;98558.66;;;9.70;100.00
17635;BME280;8936;49.010;12.120;2023-02-18T05:41:45;98559.13;;;9.51;100.00
17635;BME280;8936;49.010;12.120;2023-02-18T05:44:11;98552.19;;;9.66;100.00
17635;BME280;8936;49.010;12.120;2023-02-18T05:46:56;98561.81;;;9.67;100.00
17635;BME280;8936;49.010;12.120;2023-02-18T05:49:23;98554.13;;;9.54;100.00
17635;BME280;8936;49.010;12.120;2023-02-18T05:51:49;98559.53;;;9.59;100.00
17635;BME280;8936;49.010;12.120;2023-02-18T05:54:15;98550.16;;;9.57;100.00
17635;BME280;8936;49.010;12.120;2023-02-18T05:56:43;98551.13;;;9.51;100.00
17635;BME280;8936;49.010;12.120;2023-02-18T05:59:09;98556.38;;;9.62;100.00
17635;BME280;8936;49.010;12.120;2023-02-18T06:01:36;98553.25;;;9.65;100.00
17635;BME280;8936;49.010;12.120;2023-02-18T06:04:02;98556.38;;;9.62;100.00
17635;BME280;8936;49.010;12.120;2023-02-18T06:06:28;98544.97;;;9.50;100.00
17635;BME280;8936;49.010;12.120;2023-02-18T06:08:55;98550.50;;;9.60;100.00
17635;BME280;8936;49.010;12.120;2023-02-18T06:11:21;98550.19;;;9.73;100.00
17635;BME280;8936;49.010;12.120;2023-02-18T06:13:49;98553.34;;;9.70;100.00
17635;BME280;8936;49.010;12.120;2023-02-18T06:16:15;98564.06;;;9.59;100.00
17635;BME280;8936;49.010;12.120;2023-02-18T06:18:41;98552.94;;;9.62;100.00
17635;BME280;8936;49.010;12.120;2023-02-18T06:21:08;98553.41;;;9.59;100.00
17635;BME280;8936;49.010;12.120;2023-02-18T06:23:34;98545.81;;;9.67;100.00
17635;BME280;8936;49.010;12.120;2023-02-18T06:26:01;98550.03;;;9.80;100.00
17635;BME280;8936;49.010;12.120;2023-02-18T06:28:27;98554.22;;;9.76;100.00
17635;BME280;8936;49.010;12.120;2023-02-18T06:30:54;98556.97;;;9.64;100.00
17635;BME280;8936;49.010;12.120;2023-02-18T06:33:21;98550.50;;;9.77;100.00
17635;BME280;8936;49.010;12.120;2023-02-18T06:35:54;98547.59;;;9.78;100.00
17635;BME280;8936;49.010;12.120;2023-02-18T06:38:20;98555.34;;;9.63;100.00
17635;BME280;8936;49.010;12.120;2023-02-18T06:40:47;98564.97;;;9.64;100.00
17635;BME280;8936;49.010;12.120;2023-02-18T06:43:13;98565.03;;;9.53;100.00
17635;BME280;8936;49.010;12.120;2023-02-18T06:45:39;98560.13;;;9.61;100.00
17635;BME280;8936;49.010;12.120;2023-02-18T06:48:07;98558.09;;;9.68;100.00
17635;BME280;8936;49.010;12.120;2023-02-18T06:50:33;98566.00;;;9.63;100.00
17635;BME280;8936;49.010;12.120;2023-02-18T06:53:00;98562.56;;;9.80;100.00
17635;BME280;8936;49.010;12.120;2023-02-18T06:55:26;98564.56;;;9.72;100.00
17635;BME280;8936;49.010;12.120;2023-02-18T06:57:52;98567.81;;;9.74;100.00
17635;BME280;8936;49.010;12.120;2023-02-18T07:00:19;98566.31;;;9.50;100.00
17635;BME280;8936;49.010;12.120;2023-02-18T07:02:46;98570.16;;;9.71;100.00
17635;BME280;8936;49.010;12.120;2023-02-18T07:05:14;98571.34;;;9.63;100.00
17635;BME280;8936;49.010;12.120;2023-02-18T07:07:41;98565.69;;;9.60;100.00
17635;BME280;8936;49.010;12.120;2023-02-18T07:10:07;98566.59;;;9.65;100.00
17635;BME280;8936;49.010;12.120;2023-02-18T07:12:34;98549.84;;;9.70;100.00
17635;BME280;8936;49.010;12.120;2023-02-18T07:15:00;98554.63;;;9.85;100.00
17635;BME280;8936;49.010;12.120;2023-02-18T07:17:27;98546.28;;;9.81;100.00
17635;BME280;8936;49.010;12.120;2023-02-18T07:19:53;98559.16;;;9.67;100.00
17635;BME280;8936;49.010;12.120;2023-02-18T07:22:21;98551.63;;;9.64;100.00
17635;BME280;8936;49.010;12.120;2023-02-18T07:24:49;98547.44;;;9.68;100.00
17635;BME280;8936;49.010;12.120;2023-02-18T07:27:15;98539.34;;;9.63;100.00
17635;BME280;8936;49.010;12.120;2023-02-18T07:29:42;98528.34;;;9.60;100.00
17635;BME280;8936;49.010;12.120;2023-02-18T07:32:08;98520.66;;;9.63;100.00
17635;BME280;8936;49.010;12.120;2023-02-18T07:34:36;98524.16;;;9.64;100.00
17635;BME280;8936;49.010;12.120;2023-02-18T07:37:03;98526.03;;;9.80;100.00
17635;BME280;8936;49.010;12.120;2023-02-18T07:39:34;98524.06;;;9.75;100.00
17635;BME280;8936;49.010;12.120;2023-02-18T07:42:01;98505.81;;;9.67;100.00
17635;BME280;8936;49.010;12.120;2023-02-18T07:44:27;98508.63;;;9.61;100.00
17635;BME280;8936;49.010;12.120;2023-02-18T07:46:54;98504.44;;;9.65;100.00
17635;BME280;8936;49.010;12.120;2023-02-18T07:49:21;98494.59;;;9.65;100.00
17635;BME280;8936;49.010;12.120;2023-02-18T07:51:47;98508.97;;;9.64;100.00
17635;BME280;8936;49.010;12.120;2023-02-18T07:54:13;98502.00;;;9.80;100.00
17635;BME280;8936;49.010;12.120;2023-02-18T07:56:41;98502.97;;;9.91;100.00
17635;BME280;8936;49.010;12.120;2023-02-18T07:59:08;98495.44;;;9.88;100.00
17635;BME280;8936;49.010;12.120;2023-02-18T08:01:34;98493.13;;;9.74;100.00
17635;BME280;8936;49.010;12.120;2023-02-18T08:04:00;98491.41;;;9.85;100.00
17635;BME280;8936;49.010;12.120;2023-02-18T08:06:27;98498.44;;;9.91;100.00
17635;BME280;8936;49.010;12.120;2023-02-18T08:08:55;98495.06;;;9.96;100.00
17635;BME280;8936;49.010;12.120;2023-02-18T08:11:22;98502.97;;;9.91;100.00
17635;BME280;8936;49.010;12.120;2023-02-18T08:13:49;98506.03;;;9.99;100.00
17635;BME280;8936;49.010;12.120;2023-02-18T08:16:16;98512.66;;;9.97;100.00
17635;BME280;8936;49.010;12.120;2023-02-18T08:18:44;98510.81;;;9.97;100.00
17635;BME280;8936;49.010;12.120;2023-02-18T08:21:12;98517.94;;;9.92;100.00
17635;BME280;8936;49.010;12.120;2023-02-18T08:23:38;98510.69;;;10.09;100.00
17635;BME280;8936;49.010;12.120;2023-02-18T08:26:04;98510.47;;;10.10;100.00
17635;BME280;8936;49.010;12.120;2023-02-18T08:28:31;98497.34;;;10.09;100.00
17635;BME280;8936;49.010;12.120;2023-02-18T08:30:58;98494.56;;;9.99;100.00
17635;BME280;8936;49.010;12.120;2023-02-18T08:33:25;98498.44;;;10.08;100.00
17635;BME280;8936;49.010;12.120;2023-02-18T08:35:52;98495.06;;;9.79;100.00
17635;BME280;8936;49.010;12.120;2023-02-18T08:38:18;98494.50;;;9.77;100.00
17635;BME280;8936;49.010;12.120;2023-02-18T08:40:45;98493.84;;;9.87;100.00
17635;BME280;8936;49.010;12.120;2023-02-18T08:43:11;98493.97;;;9.97;100.00
17635;BME280;8936;49.010;12.120;2023-02-18T08:45:38;98492.22;;;9.69;100.00
17635;BME280;8936;49.010;12.120;2023-02-18T08:48:06;98486.72;;;9.75;100.00
17635;BME280;8936;49.010;12.120;2023-02-18T08:50:33;98493.91;;;9.75;100.00
17635;BME280;8936;49.010;12.120;2023-02-18T08:52:59;98494.16;;;9.73;100.00
17635;BME280;8936;49.010;12.120;2023-02-18T08:55:27;98486.34;;;9.84;100.00
17635;BME280;8936;49.010;12.120;2023-02-18T08:57:53;98475.09;;;9.65;100.00
17635;BME280;8936;49.010;12.120;2023-02-18T09:00:20;98485.03;;;9.86;100.00
17635;BME280;8936;49.010;12.120;2023-02-18T09:02:46;98467.88;;;9.82;100.00
17635;BME280;8936;49.010;12.120;2023-02-18T09:05:14;98467.78;;;9.94;100.00
17635;BME280;8936;49.010;12.120;2023-02-18T09:07:41;98457.38;;;9.75;100.00
17635;BME280;8936;49.010;12.120;2023-02-18T09:10:07;98448.97;;;9.84;100.00
17635;BME280;8936;49.010;12.120;2023-02-18T09:12:34;98453.72;;;9.98;100.00
17635;BME280;8936;49.010;12.120;2023-02-18T09:15:01;98440.00;;;9.90;100.00
17635;BME280;8936;49.010;12.120;2023-02-18T09:17:27;98442.50;;;9.96;100.00
17635;BME280;8936;49.010;12.120;2023-02-18T09:19:54;98440.94;;;10.00;100.00
17635;BME280;8936;49.010;12.120;2023-02-18T09:22:21;98435.97;;;10.09;100.00
17635;BME280;8936;49.010;12.120;2023-02-18T09:24:48;98441.88;;;10.11;100.00
17635;BME280;8936;49.010;12.120;2023-02-18T09:27:15;98432.38;;;10.15;100.00
17635;BME280;8936;49.010;12.120;2023-02-18T09:29:41;98430.03;;;10.02;100.00
17635;BME280;8936;49.010;12.120;2023-02-18T09:32:08;98441.81;;;10.22;100.00
17635;BME280;8936;49.010;12.120;2023-02-18T09:34:35;98442.81;;;10.38;100.00
17635;BME280;8936;49.010;12.120;2023-02-18T09:37:02;98425.88;;;10.11;100.00
17635;BME280;8936;49.010;12.120;2023-02-18T09:39:30;98408.50;;;10.08;100.00
17635;BME280;8936;49.010;12.120;2023-02-18T09:41:57;98414.38;;;10.10;100.00
17635;BME280;8936;49.010;12.120;2023-02-18T09:44:26;98417.78;;;10.22;100.00
17635;BME280;8936;49.010;12.120;2023-02-18T09:46:56;98411.56;;;10.17;100.00
17635;BME280;8936;49.010;12.120;2023-02-18T09:49:24;98408.22;;;10.26;100.00
17635;BME280;8936;49.010;12.120;2023-02-18T09:51:52;98409.91;;;10.33;100.00
17635;BME280;8936;49.010;12.120;2023-02-18T09:54:19;98391.91;;;10.23;100.00
17635;BME280;8936;49.010;12.120;2023-02-18T09:56:47;98407.09;;;10.22;100.00
17635;BME280;8936;49.010;12.120;2023-02-18T09:59:14;98400.53;;;10.30;100.00
17635;BME280;8936;49.010;12.120;2023-02-18T10:01:41;98389.97;;;10.18;100.00
17635;BME280;8936;49.010;12.120;2023-02-18T10:04:09;98379.78;;;10.37;100.00
17635;BME280;8936;49.010;12.120;2023-02-18T10:06:38;98380.22;;;10.29;100.00
17635;BME280;8936;49.010;12.120;2023-02-18T10:09:05;98391.13;;;10.27;100.00
17635;BME280;8936;49.010;12.120;2023-02-18T10:11:39;98389.22;;;10.23;100.00
17635;BME280;8936;49.010;12.120;2023-02-18T10:14:09;98396.47;;;10.27;100.00
17635;BME280;8936;49.010;12.120;2023-02-18T10:16:36;98394.78;;;10.43;100.00
17635;BME280;8936;49.010;12.120;2023-02-18T10:19:04;98395.75;;;10.32;100.00
17635;BME280;8936;49.010;12.120;2023-02-18T10:21:33;98394.28;;;10.46;100.00
17635;BME280;8936;49.010;12.120;2023-02-18T10:24:01;98387.22;;;10.35;100.00
17635;BME280;8936;49.010;12.120;2023-02-18T10:26:29;98386.53;;;10.45;100.00
17635;BME280;8936;49.010;12.120;2023-02-18T10:28:56;98382.75;;;10.41;100.00
17635;BME280;8936;49.010;12.120;2023-02-18T10:31:27;98389.22;;;10.45;100.00
17635;BME280;8936;49.010;12.120;2023-02-18T10:33:57;98388.34;;;10.39;100.00
17635;BME280;8936;49.010;12.120;2023-02-18T10:36:26;98383.81;;;10.61;100.00
17635;BME280;8936;49.010;12.120;2023-02-18T10:38:59;98367.38;;;10.53;100.00
17635;BME280;8936;49.010;12.120;2023-02-18T10:41:30;98372.00;;;10.57;100.00
17635;BME280;8936;49.010;12.120;2023-02-18T10:44:02;98372.69;;;10.48;100.00
17635;BME280;8936;49.010;12.120;2023-02-18T10:46:35;98364.50;;;10.54;100.00
17635;BME280;8936;49.010;12.120;2023-02-18T10:49:09;98367.31;;;10.69;100.00
17635;BME280;8936;49.010;12.120;2023-02-18T10:51:47;98351.31;;;10.74;100.00
17635;BME280;8936;49.010;12.120;2023-02-18T10:54:15;98357.53;;;10.53;100.00
17635;BME280;8936;49.010;12.120;2023-02-18T10:56:44;98347.50;;;10.65;100.00
17635;BME280;8936;49.010;12.120;2023-02-18T10:59:12;98354.09;;;10.84;100.00
17635;BME280;8936;49.010;12.120;2023-02-18T11:01:40;98344.22;;;10.85;100.00
17635;BME280;8936;49.010;12.120;2023-02-18T11:04:11;98344.03;;;10.97;100.00
17635;BME280;8936;49.010;12.120;2023-02-18T11:06:39;98346.72;;;10.97;100.00
17635;BME280;8936;49.010;12.120;2023-02-18T11:09:06;98336.94;;;10.80;100.00
17635;BME280;8936;49.010;12.120;2023-02-18T11:11:35;98322.84;;;10.85;100.00
17635;BME280;8936;49.010;12.120;2023-02-18T11:14:03;98312.50;;;10.99;100.00
17635;BME280;8936;49.010;12.120;2023-02-18T11:16:37;98310.53;;;11.16;100.00
17635;BME280;8936;49.010;12.120;2023-02-18T11:19:08;98300.69;;;10.90;100.00
17635;BME280;8936;49.010;12.120;2023-02-18T11:21:53;98297.56;;;10.98;100.00
17635;BME280;8936;49.010;12.120;2023-02-18T11:24:31;98292.53;;;10.74;100.00
17635;BME280;8936;49.010;12.120;2023-02-18T11:26:57;98290.25;;;10.83;100.00
17635;BME280;8936;49.010;12.120;2023-02-18T11:29:24;98286.97;;;10.76;100.00
17635;BME280;8936;49.010;12.120;2023-02-18T11:31:52;98290.28;;;10.88;100.00
17635;BME280;8936;49.010;12.120;2023-02-18T11:34:21;98284.44;;;10.96;100.00
17635;BME280;8936;49.010;12.120;2023-02-18T11:36:48;98274.56;;;10.97;100.00
17635;BME280;8936;49.010;12.120;2023-02-18T11:39:18;98278.84;;;10.98;100.00
17635;BME280;8936;49.010;12.120;2023-02-18T11:41:46;98278.78;;;10.88;100.00
17635;BME280;8936;49.010;12.120;2023-02-18T11:44:17;98267.28;;;10.87;100.00
17635;BME280;8936;49.010;12.120;2023-02-18T11:46:54;98269.09;;;10.81;100.00
17635;BME280;8936;49.010;12.120;2023-02-18T11:49:22;98272.78;;;11.07;100.00
17635;BME280;8936;49.010;12.120;2023-02-18T11:51:48;98257.25;;;11.04;100.00
17635;BME280;8936;49.010;12.120;2023-02-18T11:54:24;98259.56;;;10.96;100.00
17635;BME280;8936;49.010;12.120;2023-02-18T11:56:55;98262.91;;;11.08;100.00
17635;BME280;8936;49.010;12.120;2023-02-18T11:59:22;98241.38;;;10.88;100.00
17635;BME280;8936;49.010;12.120;2023-02-18T12:01:49;98235.59;;;11.01;100.00
17635;BME280;8936;49.010;12.120;2023-02-18T12:04:16;98237.28;;;11.17;100.00
17635;BME280;8936;49.010;12.120;2023-02-18T12:06:45;98245.56;;;11.20;100.00
17635;BME280;8936;49.010;12.120;2023-02-18T12:09:17;98254.91;;;11.13;100.00
17635;BME280;8936;49.010;12.120;2023-02-18T12:11:47;98231.72;;;11.28;100.00
17635;BME280;8936;49.010;12.120;2023-02-18T12:14:15;98236.66;;;11.52;100.00
17635;BME280;8936;49.010;12.120;2023-02-18T12:16:44;98228.81;;;11.87;100.00
17635;BME280;8936;49.010;12.120;2023-02-18T12:19:22;98229.53;;;11.20;100.00
17635;BME280;8936;49.010;12.120;2023-02-18T12:21:56;98209.53;;;11.23;100.00
17635;BME280;8936;49.010;12.120;2023-02-18T12:24:40;98217.63;;;11.38;100.00
17635;BME280;8936;49.010;12.120;2023-02-18T12:27:11;98198.38;;;11.41;100.00
17635;BME280;8936;49.010;12.120;2023-02-18T12:29:48;98205.50;;;11.82;100.00
17635;BME280;8936;49.010;12.120;2023-02-18T12:32:23;98203.34;;;11.74;100.00
17635;BME280;8936;49.010;12.120;2023-02-18T12:34:59;98206.50;;;11.66;100.00
17635;BME280;8936;49.010;12.120;2023-02-18T12:40:21;98193.84;;;11.47;100.00
17635;BME280;8936;49.010;12.120;2023-02-18T12:42:52;98184.88;;;11.78;100.00
17635;BME280;8936;49.010;12.120;2023-02-18T12:45:26;98189.88;;;11.59;100.00
17635;BME280;8936;49.010;12.120;2023-02-18T12:50:44;98187.84;;;11.86;100.00
17635;BME280;8936;49.010;12.120;2023-02-18T12:53:24;98184.25;;;11.61;100.00
17635;BME280;8936;49.010;12.120;2023-02-18T12:55:57;98178.47;;;11.79;100.00
17635;BME280;8936;49.010;12.120;2023-02-18T12:58:32;98177.16;;;11.81;100.00
17635;BME280;8936;49.010;12.120;2023-02-18T13:06:52;98175.81;;;11.84;100.00
17635;BME280;8936;49.010;12.120;2023-02-18T13:09:26;98175.25;;;11.77;100.00
17635;BME280;8936;49.010;12.120;2023-02-18T13:11:56;98180.59;;;11.72;100.00
17635;BME280;8936;49.010;12.120;2023-02-18T13:14:26;98166.44;;;11.81;100.00
17635;BME280;8936;49.010;12.120;2023-02-18T13:16:55;98175.00;;;11.83;100.00
17635;BME280;8936;49.010;12.120;2023-02-18T13:19:22;98180.88;;;11.75;100.00